sensor_id;sensor_type;location;lat;lon;timestamp;P1;durP1;ratioP1;P2;durP2;ratioP2
16385;SDS011;8302;51.154;4.456;2023-06-10T00:00:04;2.80;;;1.88;;
16385;SDS011;8302;51.154;4.456;2023-06-10T00:02:41;2.55;;;1.55;;
16385;SDS011;8302;51.154;4.456;2023-06-10T00:05:10;1.63;;;1.35;;
16385;SDS011;8302;51.154;4.456;2023-06-10T00:07:38;2.80;;;2.25;;
16385;SDS011;8302;51.154;4.456;2023-06-10T00:10:08;1.88;;;1.65;;
16385;SDS011;8302;51.154;4.456;2023-06-10T00:12:37;3.35;;;2.13;;
16385;SDS011;8302;51.154;4.456;2023-06-10T00:15:05;3.10;;;2.00;;
16385;SDS011;8302;51.154;4.456;2023-06-10T00:17:35;1.58;;;1.35;;
16385;SDS011;8302;51.154;4.456;2023-06-10T00:20:07;3.30;;;2.28;;
16385;SDS011;8302;51.154;4.456;2023-06-10T00:22:37;5.05;;;1.38;;
16385;SDS011;8302;51.154;4.456;2023-06-10T00:25:06;2.47;;;1.85;;
16385;SDS011;8302;51.154;4.456;2023-06-10T00:27:34;1.85;;;1.70;;
16385;SDS011;8302;51.154;4.456;2023-06-10T00:30:02;1.58;;;1.40;;
16385;SDS011;8302;51.154;4.456;2023-06-10T00:32:33;1.48;;;0.90;;
16385;SDS011;8302;51.154;4.456;2023-06-10T00:35:02;2.15;;;1.88;;
16385;SDS011;8302;51.154;4.456;2023-06-10T00:37:30;1.10;;;1.10;;
16385;SDS011;8302;51.154;4.456;2023-06-10T00:40:00;1.90;;;1.73;;
16385;SDS011;8302;51.154;4.456;2023-06-10T00:42:28;3.53;;;1.83;;
16385;SDS011;8302;51.154;4.456;2023-06-10T00:44:55;4.28;;;1.85;;
16385;SDS011;8302;51.154;4.456;2023-06-10T00:47:23;2.13;;;1.63;;
16385;SDS011;8302;51.154;4.456;2023-06-10T00:49:52;1.65;;;1.52;;
16385;SDS011;8302;51.154;4.456;2023-06-10T00:52:23;2.58;;;1.30;;
16385;SDS011;8302;51.154;4.456;2023-06-10T00:54:51;2.10;;;1.48;;
16385;SDS011;8302;51.154;4.456;2023-06-10T00:57:20;2.88;;;1.58;;
16385;SDS011;8302;51.154;4.456;2023-06-10T00:59:49;2.00;;;1.77;;
16385;SDS011;8302;51.154;4.456;2023-06-10T01:02:17;1.60;;;1.50;;
16385;SDS011;8302;51.154;4.456;2023-06-10T01:04:44;2.38;;;2.17;;
16385;SDS011;8302;51.154;4.456;2023-06-10T01:07:17;1.33;;;1.05;;
16385;SDS011;8302;51.154;4.456;2023-06-10T01:09:48;2.70;;;1.90;;
16385;SDS011;8302;51.154;4.456;2023-06-10T01:12:19;2.40;;;1.48;;
16385;SDS011;8302;51.154;4.456;2023-06-10T01:14:48;1.90;;;1.45;;
16385;SDS011;8302;51.154;4.456;2023-06-10T01:17:17;1.92;;;1.58;;
16385;SDS011;8302;51.154;4.456;2023-06-10T01:19:52;2.05;;;1.45;;
16385;SDS011;8302;51.154;4.456;2023-06-10T01:22:23;1.67;;;1.52;;
16385;SDS011;8302;51.154;4.456;2023-06-10T01:24:52;1.75;;;1.30;;
16385;SDS011;8302;51.154;4.456;2023-06-10T01:27:21;2.15;;;1.95;;
16385;SDS011;8302;51.154;4.456;2023-06-10T01:29:50;2.78;;;1.60;;
16385;SDS011;8302;51.154;4.456;2023-06-10T01:32:23;2.42;;;1.63;;
16385;SDS011;8302;51.154;4.456;2023-06-10T01:34:52;1.40;;;1.30;;
16385;SDS011;8302;51.154;4.456;2023-06-10T01:37:23;1.58;;;1.48;;
16385;SDS011;8302;51.154;4.456;2023-06-10T01:39:52;1.67;;;1.58;;
16385;SDS011;8302;51.154;4.456;2023-06-10T01:42:22;3.65;;;1.85;;
16385;SDS011;8302;51.154;4.456;2023-06-10T01:44:50;2.25;;;1.80;;
16385;SDS011;8302;51.154;4.456;2023-06-10T01:47:18;2.05;;;1.85;;
16385;SDS011;8302;51.154;4.456;2023-06-10T01:49:47;1.48;;;1.38;;
16385;SDS011;8302;51.154;4.456;2023-06-10T01:52:14;3.65;;;1.27;;
16385;SDS011;8302;51.154;4.456;2023-06-10T01:54:44;1.65;;;1.55;;
16385;SDS011;8302;51.154;4.456;2023-06-10T01:57:11;1.40;;;1.30;;
16385;SDS011;8302;51.154;4.456;2023-06-10T01:59:39;2.10;;;1.88;;
16385;SDS011;8302;51.154;4.456;2023-06-10T02:02:08;2.30;;;2.10;;
16385;SDS011;8302;51.154;4.456;2023-06-10T02:04:37;2.70;;;1.50;;
16385;SDS011;8302;51.154;4.456;2023-06-10T02:07:05;2.55;;;2.05;;
16385;SDS011;8302;51.154;4.456;2023-06-10T02:09:33;1.70;;;1.25;;
16385;SDS011;8302;51.154;4.456;2023-06-10T02:12:03;4.50;;;2.33;;
16385;SDS011;8302;51.154;4.456;2023-06-10T02:14:33;1.88;;;1.77;;
16385;SDS011;8302;51.154;4.456;2023-06-10T02:17:01;3.15;;;2.10;;
16385;SDS011;8302;51.154;4.456;2023-06-10T02:19:29;2.17;;;1.85;;
16385;SDS011;8302;51.154;4.456;2023-06-10T02:21:57;1.70;;;1.52;;
16385;SDS011;8302;51.154;4.456;2023-06-10T02:24:25;3.30;;;2.28;;
16385;SDS011;8302;51.154;4.456;2023-06-10T02:26:52;2.08;;;1.88;;
16385;SDS011;8302;51.154;4.456;2023-06-10T02:29:22;3.28;;;1.77;;
16385;SDS011;8302;51.154;4.456;2023-06-10T02:31:51;4.22;;;1.00;;
16385;SDS011;8302;51.154;4.456;2023-06-10T02:34:19;3.92;;;2.05;;
16385;SDS011;8302;51.154;4.456;2023-06-10T02:36:47;1.48;;;1.38;;
16385;SDS011;8302;51.154;4.456;2023-06-10T02:39:20;1.98;;;1.35;;
16385;SDS011;8302;51.154;4.456;2023-06-10T02:41:48;3.05;;;1.80;;
16385;SDS011;8302;51.154;4.456;2023-06-10T02:44:17;2.08;;;1.83;;
16385;SDS011;8302;51.154;4.456;2023-06-10T02:46:47;2.53;;;1.98;;
16385;SDS011;8302;51.154;4.456;2023-06-10T02:49:16;2.83;;;2.40;;
16385;SDS011;8302;51.154;4.456;2023-06-10T02:51:45;1.88;;;1.23;;
16385;SDS011;8302;51.154;4.456;2023-06-10T02:54:13;2.05;;;1.85;;
16385;SDS011;8302;51.154;4.456;2023-06-10T02:56:41;3.63;;;1.88;;
16385;SDS011;8302;51.154;4.456;2023-06-10T02:59:16;2.00;;;1.55;;
16385;SDS011;8302;51.154;4.456;2023-06-10T03:01:46;2.20;;;1.27;;
16385;SDS011;8302;51.154;4.456;2023-06-10T03:04:15;1.17;;;1.02;;
16385;SDS011;8302;51.154;4.456;2023-06-10T03:06:52;3.20;;;2.28;;
16385;SDS011;8302;51.154;4.456;2023-06-10T03:09:26;2.30;;;1.85;;
16385;SDS011;8302;51.154;4.456;2023-06-10T03:11:56;2.58;;;1.45;;
16385;SDS011;8302;51.154;4.456;2023-06-10T03:14:25;1.65;;;1.50;;
16385;SDS011;8302;51.154;4.456;2023-06-10T03:16:53;2.80;;;2.17;;
16385;SDS011;8302;51.154;4.456;2023-06-10T03:19:24;1.17;;;1.15;;
16385;SDS011;8302;51.154;4.456;2023-06-10T03:22:08;3.67;;;2.72;;
16385;SDS011;8302;51.154;4.456;2023-06-10T03:24:49;3.08;;;1.85;;
16385;SDS011;8302;51.154;4.456;2023-06-10T03:27:18;1.83;;;1.73;;
16385;SDS011;8302;51.154;4.456;2023-06-10T03:29:50;4.75;;;2.03;;
16385;SDS011;8302;51.154;4.456;2023-06-10T03:32:18;3.10;;;1.92;;
16385;SDS011;8302;51.154;4.456;2023-06-10T03:34:48;5.57;;;2.28;;
16385;SDS011;8302;51.154;4.456;2023-06-10T03:37:15;1.52;;;1.42;;
16385;SDS011;8302;51.154;4.456;2023-06-10T03:39:46;1.63;;;1.25;;
16385;SDS011;8302;51.154;4.456;2023-06-10T03:42:14;1.38;;;1.27;;
16385;SDS011;8302;51.154;4.456;2023-06-10T03:44:42;2.20;;;1.63;;
16385;SDS011;8302;51.154;4.456;2023-06-10T03:47:09;3.97;;;1.73;;
16385;SDS011;8302;51.154;4.456;2023-06-10T03:49:39;2.30;;;1.70;;
16385;SDS011;8302;51.154;4.456;2023-06-10T03:52:08;1.55;;;1.38;;
16385;SDS011;8302;51.154;4.456;2023-06-10T03:54:37;1.40;;;1.27;;
16385;SDS011;8302;51.154;4.456;2023-06-10T03:57:04;2.25;;;1.75;;
16385;SDS011;8302;51.154;4.456;2023-06-10T03:59:33;3.45;;;1.85;;
16385;SDS011;8302;51.154;4.456;2023-06-10T04:02:01;4.40;;;2.10;;
16385;SDS011;8302;51.154;4.456;2023-06-10T04:04:32;3.45;;;2.13;;
16385;SDS011;8302;51.154;4.456;2023-06-10T04:07:00;1.95;;;1.55;;
16385;SDS011;8302;51.154;4.456;2023-06-10T04:09:29;2.25;;;1.13;;
16385;SDS011;8302;51.154;4.456;2023-06-10T04:11:58;2.45;;;1.17;;
16385;SDS011;8302;51.154;4.456;2023-06-10T04:14:26;2.95;;;2.63;;
16385;SDS011;8302;51.154;4.456;2023-06-10T04:16:54;1.83;;;1.67;;
16385;SDS011;8302;51.154;4.456;2023-06-10T04:19:22;5.05;;;2.03;;
16385;SDS011;8302;51.154;4.456;2023-06-10T04:21:50;2.80;;;2.03;;
16385;SDS011;8302;51.154;4.456;2023-06-10T04:24:19;2.05;;;1.40;;
16385;SDS011;8302;51.154;4.456;2023-06-10T04:26:49;4.03;;;2.00;;
16385;SDS011;8302;51.154;4.456;2023-06-10T04:29:17;1.98;;;1.77;;
16385;SDS011;8302;51.154;4.456;2023-06-10T04:31:45;1.30;;;1.20;;
16385;SDS011;8302;51.154;4.456;2023-06-10T04:34:13;2.38;;;2.17;;
16385;SDS011;8302;51.154;4.456;2023-06-10T04:36:41;2.05;;;1.92;;
16385;SDS011;8302;51.154;4.456;2023-06-10T04:39:09;2.20;;;1.52;;
16385;SDS011;8302;51.154;4.456;2023-06-10T04:41:37;4.07;;;1.80;;
16385;SDS011;8302;51.154;4.456;2023-06-10T04:44:07;1.90;;;1.80;;
16385;SDS011;8302;51.154;4.456;2023-06-10T04:46:35;3.28;;;2.63;;
16385;SDS011;8302;51.154;4.456;2023-06-10T04:49:03;1.63;;;1.48;;
16385;SDS011;8302;51.154;4.456;2023-06-10T04:51:31;3.10;;;2.33;;
16385;SDS011;8302;51.154;4.456;2023-06-10T04:54:00;2.70;;;1.63;;
16385;SDS011;8302;51.154;4.456;2023-06-10T04:56:30;3.28;;;2.38;;
16385;SDS011;8302;51.154;4.456;2023-06-10T04:58:58;1.92;;;1.75;;
16385;SDS011;8302;51.154;4.456;2023-06-10T05:01:28;3.17;;;2.03;;
16385;SDS011;8302;51.154;4.456;2023-06-10T05:03:56;2.50;;;1.75;;
16385;SDS011;8302;51.154;4.456;2023-06-10T05:06:23;2.53;;;1.60;;
16385;SDS011;8302;51.154;4.456;2023-06-10T05:08:51;3.13;;;2.05;;
16385;SDS011;8302;51.154;4.456;2023-06-10T05:11:19;4.05;;;2.70;;
16385;SDS011;8302;51.154;4.456;2023-06-10T05:13:47;2.65;;;1.98;;
16385;SDS011;8302;51.154;4.456;2023-06-10T05:16:15;2.25;;;2.03;;
16385;SDS011;8302;51.154;4.456;2023-06-10T05:18:44;3.33;;;2.28;;
16385;SDS011;8302;51.154;4.456;2023-06-10T05:21:12;2.08;;;1.50;;
16385;SDS011;8302;51.154;4.456;2023-06-10T05:23:40;3.22;;;2.33;;
16385;SDS011;8302;51.154;4.456;2023-06-10T05:26:08;2.33;;;1.98;;
16385;SDS011;8302;51.154;4.456;2023-06-10T05:28:36;1.90;;;1.77;;
16385;SDS011;8302;51.154;4.456;2023-06-10T05:31:04;1.83;;;1.60;;
16385;SDS011;8302;51.154;4.456;2023-06-10T05:33:31;2.83;;;2.25;;
16385;SDS011;8302;51.154;4.456;2023-06-10T05:36:01;1.65;;;1.55;;
16385;SDS011;8302;51.154;4.456;2023-06-10T05:38:28;2.13;;;1.70;;
16385;SDS011;8302;51.154;4.456;2023-06-10T05:40:56;3.53;;;2.00;;
16385;SDS011;8302;51.154;4.456;2023-06-10T05:43:25;3.05;;;2.65;;
16385;SDS011;8302;51.154;4.456;2023-06-10T05:45:53;2.47;;;1.80;;
16385;SDS011;8302;51.154;4.456;2023-06-10T05:48:21;2.78;;;2.25;;
16385;SDS011;8302;51.154;4.456;2023-06-10T05:50:48;2.60;;;1.80;;
16385;SDS011;8302;51.154;4.456;2023-06-10T05:53:18;3.88;;;2.78;;
16385;SDS011;8302;51.154;4.456;2023-06-10T05:55:46;3.75;;;3.13;;
16385;SDS011;8302;51.154;4.456;2023-06-10T05:58:14;1.48;;;1.38;;
16385;SDS011;8302;51.154;4.456;2023-06-10T06:00:42;2.42;;;1.65;;
16385;SDS011;8302;51.154;4.456;2023-06-10T06:03:09;1.67;;;1.50;;
16385;SDS011;8302;51.154;4.456;2023-06-10T06:05:37;2.22;;;1.90;;
16385;SDS011;8302;51.154;4.456;2023-06-10T06:08:05;3.00;;;2.15;;
16385;SDS011;8302;51.154;4.456;2023-06-10T06:10:34;2.63;;;2.08;;
16385;SDS011;8302;51.154;4.456;2023-06-10T06:13:02;1.42;;;1.33;;
16385;SDS011;8302;51.154;4.456;2023-06-10T06:15:30;3.38;;;2.72;;
16385;SDS011;8302;51.154;4.456;2023-06-10T06:17:58;1.67;;;1.58;;
16385;SDS011;8302;51.154;4.456;2023-06-10T06:20:25;2.85;;;2.42;;
16385;SDS011;8302;51.154;4.456;2023-06-10T06:22:54;2.42;;;1.88;;
16385;SDS011;8302;51.154;4.456;2023-06-10T06:25:21;4.75;;;2.20;;
16385;SDS011;8302;51.154;4.456;2023-06-10T06:27:51;1.27;;;1.17;;
16385;SDS011;8302;51.154;4.456;2023-06-10T06:30:19;1.42;;;1.33;;
16385;SDS011;8302;51.154;4.456;2023-06-10T06:32:46;2.22;;;1.60;;
16385;SDS011;8302;51.154;4.456;2023-06-10T06:35:14;3.20;;;2.15;;
16385;SDS011;8302;51.154;4.456;2023-06-10T06:37:42;3.58;;;2.22;;
16385;SDS011;8302;51.154;4.456;2023-06-10T06:40:18;2.10;;;1.90;;
16385;SDS011;8302;51.154;4.456;2023-06-10T06:42:46;4.70;;;2.97;;
16385;SDS011;8302;51.154;4.456;2023-06-10T06:45:38;3.75;;;2.38;;
16385;SDS011;8302;51.154;4.456;2023-06-10T06:48:05;5.15;;;2.50;;
16385;SDS011;8302;51.154;4.456;2023-06-10T06:50:33;3.63;;;2.58;;
16385;SDS011;8302;51.154;4.456;2023-06-10T06:53:01;3.25;;;2.95;;
16385;SDS011;8302;51.154;4.456;2023-06-10T06:55:29;2.75;;;1.95;;
16385;SDS011;8302;51.154;4.456;2023-06-10T06:57:57;2.42;;;1.77;;
16385;SDS011;8302;51.154;4.456;2023-06-10T07:00:29;3.58;;;2.50;;
16385;SDS011;8302;51.154;4.456;2023-06-10T07:02:58;1.83;;;1.73;;
16385;SDS011;8302;51.154;4.456;2023-06-10T07:05:26;3.75;;;2.88;;
16385;SDS011;8302;51.154;4.456;2023-06-10T07:07:54;1.70;;;1.25;;
16385;SDS011;8302;51.154;4.456;2023-06-10T07:10:22;2.65;;;1.70;;
16385;SDS011;8302;51.154;4.456;2023-06-10T07:12:51;2.63;;;2.08;;
16385;SDS011;8302;51.154;4.456;2023-06-10T07:15:18;4.13;;;2.58;;
16385;SDS011;8302;51.154;4.456;2023-06-10T07:17:46;3.30;;;2.55;;
16385;SDS011;8302;51.154;4.456;2023-06-10T07:20:16;4.82;;;3.15;;
16385;SDS011;8302;51.154;4.456;2023-06-10T07:22:44;4.25;;;3.58;;
16385;SDS011;8302;51.154;4.456;2023-06-10T07:25:12;4.65;;;3.47;;
16385;SDS011;8302;51.154;4.456;2023-06-10T07:27:40;4.18;;;3.45;;
16385;SDS011;8302;51.154;4.456;2023-06-10T07:30:08;5.25;;;3.72;;
16385;SDS011;8302;51.154;4.456;2023-06-10T07:32:35;4.95;;;3.08;;
16385;SDS011;8302;51.154;4.456;2023-06-10T07:35:05;5.60;;;4.05;;
16385;SDS011;8302;51.154;4.456;2023-06-10T07:37:35;4.68;;;3.58;;
16385;SDS011;8302;51.154;4.456;2023-06-10T07:40:03;4.05;;;3.65;;
16385;SDS011;8302;51.154;4.456;2023-06-10T07:42:31;4.60;;;4.18;;
16385;SDS011;8302;51.154;4.456;2023-06-10T07:44:59;6.15;;;4.13;;
16385;SDS011;8302;51.154;4.456;2023-06-10T07:47:27;4.95;;;4.22;;
16385;SDS011;8302;51.154;4.456;2023-06-10T07:49:54;7.47;;;4.82;;
16385;SDS011;8302;51.154;4.456;2023-06-10T07:52:22;6.40;;;4.63;;
16385;SDS011;8302;51.154;4.456;2023-06-10T07:54:51;5.03;;;4.53;;
16385;SDS011;8302;51.154;4.456;2023-06-10T07:57:19;7.13;;;5.07;;
16385;SDS011;8302;51.154;4.456;2023-06-10T07:59:47;5.28;;;4.78;;
16385;SDS011;8302;51.154;4.456;2023-06-10T08:02:15;5.20;;;4.45;;
16385;SDS011;8302;51.154;4.456;2023-06-10T08:04:43;5.38;;;4.55;;
16385;SDS011;8302;51.154;4.456;2023-06-10T08:07:10;5.82;;;4.30;;
16385;SDS011;8302;51.154;4.456;2023-06-10T08:09:38;4.93;;;3.88;;
16385;SDS011;8302;51.154;4.456;2023-06-10T08:12:08;4.75;;;3.13;;
16385;SDS011;8302;51.154;4.456;2023-06-10T08:14:39;3.13;;;2.50;;
16385;SDS011;8302;51.154;4.456;2023-06-10T08:17:07;5.45;;;3.58;;
16385;SDS011;8302;51.154;4.456;2023-06-10T08:19:34;4.97;;;4.15;;
16385;SDS011;8302;51.154;4.456;2023-06-10T08:22:02;5.10;;;3.65;;
16385;SDS011;8302;51.154;4.456;2023-06-10T08:24:30;4.70;;;2.95;;
16385;SDS011;8302;51.154;4.456;2023-06-10T08:26:58;5.90;;;5.30;;
16385;SDS011;8302;51.154;4.456;2023-06-10T08:29:27;6.22;;;5.63;;
16385;SDS011;8302;51.154;4.456;2023-06-10T08:31:55;5.60;;;5.00;;
16385;SDS011;8302;51.154;4.456;2023-06-10T08:34:23;5.88;;;5.13;;
16385;SDS011;8302;51.154;4.456;2023-06-10T08:36:51;5.93;;;5.25;;
16385;SDS011;8302;51.154;4.456;2023-06-10T08:39:21;5.60;;;5.10;;
16385;SDS011;8302;51.154;4.456;2023-06-10T08:41:51;6.57;;;5.05;;
16385;SDS011;8302;51.154;4.456;2023-06-10T08:44:25;6.22;;;5.63;;
16385;SDS011;8302;51.154;4.456;2023-06-10T08:46:57;6.50;;;5.53;;
16385;SDS011;8302;51.154;4.456;2023-06-10T08:49:26;6.10;;;5.20;;
16385;SDS011;8302;51.154;4.456;2023-06-10T08:51:55;5.80;;;4.78;;
16385;SDS011;8302;51.154;4.456;2023-06-10T08:54:23;6.05;;;5.45;;
16385;SDS011;8302;51.154;4.456;2023-06-10T08:56:53;6.13;;;5.28;;
16385;SDS011;8302;51.154;4.456;2023-06-10T08:59:21;7.05;;;5.28;;
16385;SDS011;8302;51.154;4.456;2023-06-10T09:01:49;6.40;;;5.40;;
16385;SDS011;8302;51.154;4.456;2023-06-10T09:04:19;6.22;;;5.50;;
16385;SDS011;8302;51.154;4.456;2023-06-10T09:06:47;6.13;;;5.53;;
16385;SDS011;8302;51.154;4.456;2023-06-10T09:09:16;5.82;;;5.13;;
16385;SDS011;8302;51.154;4.456;2023-06-10T09:11:46;6.20;;;5.57;;
16385;SDS011;8302;51.154;4.456;2023-06-10T09:14:13;8.57;;;5.82;;
16385;SDS011;8302;51.154;4.456;2023-06-10T09:16:43;6.28;;;5.45;;
16385;SDS011;8302;51.154;4.456;2023-06-10T09:19:13;6.45;;;5.68;;
16385;SDS011;8302;51.154;4.456;2023-06-10T09:21:42;5.68;;;5.05;;
16385;SDS011;8302;51.154;4.456;2023-06-10T09:24:10;5.82;;;5.25;;
16385;SDS011;8302;51.154;4.456;2023-06-10T09:26:38;6.63;;;5.55;;
16385;SDS011;8302;51.154;4.456;2023-06-10T09:29:06;6.32;;;5.50;;
16385;SDS011;8302;51.154;4.456;2023-06-10T09:31:35;6.60;;;5.00;;
16385;SDS011;8302;51.154;4.456;2023-06-10T09:34:07;5.82;;;5.32;;
16385;SDS011;8302;51.154;4.456;2023-06-10T09:36:35;7.10;;;5.55;;
16385;SDS011;8302;51.154;4.456;2023-06-10T09:39:05;7.00;;;5.45;;
16385;SDS011;8302;51.154;4.456;2023-06-10T09:41:33;8.48;;;6.10;;
16385;SDS011;8302;51.154;4.456;2023-06-10T09:44:01;7.30;;;5.95;;
16385;SDS011;8302;51.154;4.456;2023-06-10T09:46:30;8.43;;;6.05;;
16385;SDS011;8302;51.154;4.456;2023-06-10T09:48:58;10.27;;;6.80;;
16385;SDS011;8302;51.154;4.456;2023-06-10T09:51:26;7.30;;;5.50;;
16385;SDS011;8302;51.154;4.456;2023-06-10T09:53:54;8.00;;;5.45;;
16385;SDS011;8302;51.154;4.456;2023-06-10T09:56:25;7.85;;;5.68;;
16385;SDS011;8302;51.154;4.456;2023-06-10T09:58:59;6.88;;;5.90;;
16385;SDS011;8302;51.154;4.456;2023-06-10T10:01:27;6.70;;;5.50;;
16385;SDS011;8302;51.154;4.456;2023-06-10T10:03:55;6.90;;;5.45;;
16385;SDS011;8302;51.154;4.456;2023-06-10T10:06:23;6.55;;;5.78;;
16385;SDS011;8302;51.154;4.456;2023-06-10T10:08:51;6.38;;;5.75;;
16385;SDS011;8302;51.154;4.456;2023-06-10T10:11:19;7.63;;;5.75;;
16385;SDS011;8302;51.154;4.456;2023-06-10T10:13:50;6.55;;;5.78;;
16385;SDS011;8302;51.154;4.456;2023-06-10T10:16:19;6.80;;;5.63;;
16385;SDS011;8302;51.154;4.456;2023-06-10T10:18:49;7.35;;;6.10;;
16385;SDS011;8302;51.154;4.456;2023-06-10T10:21:17;6.97;;;5.65;;
16385;SDS011;8302;51.154;4.456;2023-06-10T10:23:51;6.20;;;5.60;;
16385;SDS011;8302;51.154;4.456;2023-06-10T10:26:21;4.82;;;3.92;;
16385;SDS011;8302;51.154;4.456;2023-06-10T10:28:51;7.30;;;4.72;;
16385;SDS011;8302;51.154;4.456;2023-06-10T10:31:21;6.32;;;5.00;;
16385;SDS011;8302;51.154;4.456;2023-06-10T10:33:51;7.38;;;5.13;;
16385;SDS011;8302;51.154;4.456;2023-06-10T10:36:23;7.75;;;5.40;;
16385;SDS011;8302;51.154;4.456;2023-06-10T10:38:51;5.68;;;4.97;;
16385;SDS011;8302;51.154;4.456;2023-06-10T10:41:20;5.68;;;5.10;;
16385;SDS011;8302;51.154;4.456;2023-06-10T10:43:48;6.95;;;5.85;;
16385;SDS011;8302;51.154;4.456;2023-06-10T10:46:19;6.78;;;5.32;;
16385;SDS011;8302;51.154;4.456;2023-06-10T10:48:51;6.07;;;5.35;;
16385;SDS011;8302;51.154;4.456;2023-06-10T10:51:19;6.22;;;5.63;;
16385;SDS011;8302;51.154;4.456;2023-06-10T10:56:30;6.13;;;5.53;;
16385;SDS011;8302;51.154;4.456;2023-06-10T10:59:03;5.88;;;5.28;;
16385;SDS011;8302;51.154;4.456;2023-06-10T11:01:40;6.60;;;5.80;;
16385;SDS011;8302;51.154;4.456;2023-06-10T11:04:08;6.00;;;5.40;;
16385;SDS011;8302;51.154;4.456;2023-06-10T11:06:37;6.75;;;5.28;;
16385;SDS011;8302;51.154;4.456;2023-06-10T11:11:48;5.90;;;5.18;;
16385;SDS011;8302;51.154;4.456;2023-06-10T11:14:17;7.15;;;5.40;;
16385;SDS011;8302;51.154;4.456;2023-06-10T11:16:54;7.53;;;5.13;;
16385;SDS011;8302;51.154;4.456;2023-06-10T11:19:33;5.35;;;4.85;;
16385;SDS011;8302;51.154;4.456;2023-06-10T11:22:02;5.78;;;5.10;;
16385;SDS011;8302;51.154;4.456;2023-06-10T11:24:30;5.93;;;5.35;;
16385;SDS011;8302;51.154;4.456;2023-06-10T11:27:17;6.57;;;5.28;;
16385;SDS011;8302;51.154;4.456;2023-06-10T11:32:33;6.20;;;5.30;;
16385;SDS011;8302;51.154;4.456;2023-06-10T11:35:02;5.68;;;5.03;;
16385;SDS011;8302;51.154;4.456;2023-06-10T11:37:30;6.18;;;5.28;;
16385;SDS011;8302;51.154;4.456;2023-06-10T11:39:58;7.45;;;4.47;;
16385;SDS011;8302;51.154;4.456;2023-06-10T11:42:26;6.47;;;5.63;;
16385;SDS011;8302;51.154;4.456;2023-06-10T11:44:54;5.13;;;4.63;;
16385;SDS011;8302;51.154;4.456;2023-06-10T11:47:21;6.82;;;5.20;;
16385;SDS011;8302;51.154;4.456;2023-06-10T11:49:56;5.50;;;4.80;;
16385;SDS011;8302;51.154;4.456;2023-06-10T11:52:28;6.65;;;5.45;;
16385;SDS011;8302;51.154;4.456;2023-06-10T11:54:57;5.22;;;4.63;;
16385;SDS011;8302;51.154;4.456;2023-06-10T11:57:25;5.47;;;4.80;;
16385;SDS011;8302;51.154;4.456;2023-06-10T11:59:53;6.03;;;5.13;;
16385;SDS011;8302;51.154;4.456;2023-06-10T12:02:20;5.82;;;4.72;;
16385;SDS011;8302;51.154;4.456;2023-06-10T12:04:49;5.80;;;4.40;;
16385;SDS011;8302;51.154;4.456;2023-06-10T12:07:18;6.05;;;5.18;;
16385;SDS011;8302;51.154;4.456;2023-06-10T12:09:57;6.35;;;4.55;;
16385;SDS011;8302;51.154;4.456;2023-06-10T12:12:37;6.38;;;4.97;;
16385;SDS011;8302;51.154;4.456;2023-06-10T12:15:05;5.72;;;4.53;;
16385;SDS011;8302;51.154;4.456;2023-06-10T12:17:37;5.32;;;4.82;;
16385;SDS011;8302;51.154;4.456;2023-06-10T12:20:05;5.53;;;4.55;;
16385;SDS011;8302;51.154;4.456;2023-06-10T12:22:39;6.45;;;4.43;;
16385;SDS011;8302;51.154;4.456;2023-06-10T12:25:08;6.45;;;4.32;;
16385;SDS011;8302;51.154;4.456;2023-06-10T12:27:37;5.18;;;4.43;;
16385;SDS011;8302;51.154;4.456;2023-06-10T12:30:05;3.55;;;3.25;;
16385;SDS011;8302;51.154;4.456;2023-06-10T12:32:37;4.13;;;3.58;;
16385;SDS011;8302;51.154;4.456;2023-06-10T12:35:06;4.68;;;3.65;;
16385;SDS011;8302;51.154;4.456;2023-06-10T12:37:34;4.72;;;3.88;;
16385;SDS011;8302;51.154;4.456;2023-06-10T12:40:10;5.43;;;3.95;;
16385;SDS011;8302;51.154;4.456;2023-06-10T12:42:38;5.45;;;4.30;;
16385;SDS011;8302;51.154;4.456;2023-06-10T12:45:06;6.28;;;4.03;;
16385;SDS011;8302;51.154;4.456;2023-06-10T12:47:37;6.97;;;3.83;;
16385;SDS011;8302;51.154;4.456;2023-06-10T12:50:06;5.53;;;3.50;;
16385;SDS011;8302;51.154;4.456;2023-06-10T12:52:35;4.15;;;3.25;;
16385;SDS011;8302;51.154;4.456;2023-06-10T12:55:02;4.88;;;3.67;;
16385;SDS011;8302;51.154;4.456;2023-06-10T12:57:32;4.60;;;3.28;;
16385;SDS011;8302;51.154;4.456;2023-06-10T13:00:00;4.97;;;3.05;;
16385;SDS011;8302;51.154;4.456;2023-06-10T13:02:31;4.53;;;3.15;;
16385;SDS011;8302;51.154;4.456;2023-06-10T13:04:59;3.97;;;3.55;;
16385;SDS011;8302;51.154;4.456;2023-06-10T13:07:27;3.30;;;2.25;;
16385;SDS011;8302;51.154;4.456;2023-06-10T13:09:57;1.80;;;1.70;;
16385;SDS011;8302;51.154;4.456;2023-06-10T13:12:25;4.70;;;2.40;;
16385;SDS011;8302;51.154;4.456;2023-06-10T13:15:14;3.72;;;2.72;;
16385;SDS011;8302;51.154;4.456;2023-06-10T13:17:42;4.30;;;3.03;;
16385;SDS011;8302;51.154;4.456;2023-06-10T13:20:10;2.40;;;2.20;;
16385;SDS011;8302;51.154;4.456;2023-06-10T13:22:38;3.72;;;2.80;;
16385;SDS011;8302;51.154;4.456;2023-06-10T13:25:06;4.00;;;3.20;;
16385;SDS011;8302;51.154;4.456;2023-06-10T13:27:35;4.22;;;3.83;;
16385;SDS011;8302;51.154;4.456;2023-06-10T13:30:04;4.38;;;3.22;;
16385;SDS011;8302;51.154;4.456;2023-06-10T13:32:34;3.55;;;3.03;;
16385;SDS011;8302;51.154;4.456;2023-06-10T13:35:02;5.50;;;3.88;;
16385;SDS011;8302;51.154;4.456;2023-06-10T13:37:30;4.65;;;2.85;;
16385;SDS011;8302;51.154;4.456;2023-06-10T13:40:00;4.28;;;2.58;;
16385;SDS011;8302;51.154;4.456;2023-06-10T13:42:28;8.88;;;2.97;;
16385;SDS011;8302;51.154;4.456;2023-06-10T13:44:56;3.83;;;1.67;;
16385;SDS011;8302;51.154;4.456;2023-06-10T13:47:24;1.90;;;1.55;;
16385;SDS011;8302;51.154;4.456;2023-06-10T13:49:54;2.35;;;1.65;;
16385;SDS011;8302;51.154;4.456;2023-06-10T13:52:22;2.85;;;2.28;;
16385;SDS011;8302;51.154;4.456;2023-06-10T13:54:50;3.10;;;2.25;;
16385;SDS011;8302;51.154;4.456;2023-06-10T13:57:17;2.58;;;2.28;;
16385;SDS011;8302;51.154;4.456;2023-06-10T13:59:45;2.58;;;1.85;;
16385;SDS011;8302;51.154;4.456;2023-06-10T14:02:13;1.77;;;1.38;;
16385;SDS011;8302;51.154;4.456;2023-06-10T14:04:41;3.88;;;3.00;;
16385;SDS011;8302;51.154;4.456;2023-06-10T14:07:10;3.17;;;2.20;;
16385;SDS011;8302;51.154;4.456;2023-06-10T14:09:38;1.58;;;1.40;;
16385;SDS011;8302;51.154;4.456;2023-06-10T14:12:06;2.50;;;1.80;;
16385;SDS011;8302;51.154;4.456;2023-06-10T14:14:35;1.55;;;1.42;;
16385;SDS011;8302;51.154;4.456;2023-06-10T14:17:03;4.25;;;2.58;;
16385;SDS011;8302;51.154;4.456;2023-06-10T14:19:32;2.13;;;1.67;;
16385;SDS011;8302;51.154;4.456;2023-06-10T14:21:59;2.42;;;1.83;;
16385;SDS011;8302;51.154;4.456;2023-06-10T14:24:28;2.47;;;1.48;;
16385;SDS011;8302;51.154;4.456;2023-06-10T14:26:57;3.58;;;1.88;;
16385;SDS011;8302;51.154;4.456;2023-06-10T14:29:24;5.35;;;3.58;;
16385;SDS011;8302;51.154;4.456;2023-06-10T14:31:55;2.97;;;2.30;;
16385;SDS011;8302;51.154;4.456;2023-06-10T14:34:23;5.82;;;3.95;;
16385;SDS011;8302;51.154;4.456;2023-06-10T14:36:55;4.63;;;2.95;;
16385;SDS011;8302;51.154;4.456;2023-06-10T14:39:23;3.60;;;3.10;;
16385;SDS011;8302;51.154;4.456;2023-06-10T14:41:52;5.22;;;3.17;;
16385;SDS011;8302;51.154;4.456;2023-06-10T14:44:20;3.50;;;3.20;;
16385;SDS011;8302;51.154;4.456;2023-06-10T14:46:47;4.47;;;3.00;;
16385;SDS011;8302;51.154;4.456;2023-06-10T14:49:15;4.43;;;3.45;;
16385;SDS011;8302;51.154;4.456;2023-06-10T14:51:43;5.20;;;3.33;;
16385;SDS011;8302;51.154;4.456;2023-06-10T14:54:11;3.35;;;2.90;;
16385;SDS011;8302;51.154;4.456;2023-06-10T14:56:38;4.45;;;3.65;;
16385;SDS011;8302;51.154;4.456;2023-06-10T14:59:07;4.93;;;3.17;;
16385;SDS011;8302;51.154;4.456;2023-06-10T15:01:35;4.63;;;2.88;;
16385;SDS011;8302;51.154;4.456;2023-06-10T15:04:03;6.88;;;3.47;;
16385;SDS011;8302;51.154;4.456;2023-06-10T15:06:31;4.00;;;3.53;;
16385;SDS011;8302;51.154;4.456;2023-06-10T15:08:59;4.30;;;3.30;;
16385;SDS011;8302;51.154;4.456;2023-06-10T15:11:27;4.80;;;3.20;;
16385;SDS011;8302;51.154;4.456;2023-06-10T15:13:55;3.97;;;3.30;;
16385;SDS011;8302;51.154;4.456;2023-06-10T15:16:24;4.13;;;3.38;;
16385;SDS011;8302;51.154;4.456;2023-06-10T15:18:52;4.82;;;2.95;;